createdAt,value
2022-11-14T00:00:01.770Z,24.30
2022-11-14T00:03:07.268Z,24.45
2022-11-14T00:06:11.483Z,24.60
2022-11-14T00:09:14.896Z,24.13
2022-11-14T00:12:19.015Z,19.90
2022-11-14T00:15:23.058Z,26.10
2022-11-14T00:18:27.026Z,18.42
2022-11-14T00:21:31.157Z,19.17
2022-11-14T00:24:35.244Z,23.42
2022-11-14T00:27:39.148Z,26.83
2022-11-14T00:30:47.795Z,22.83
2022-11-14T00:33:51.376Z,19.55
2022-11-14T00:36:55.124Z,22.15
2022-11-14T00:39:58.998Z,26.60
2022-11-14T00:46:05.967Z,23.25
2022-11-14T00:49:10.125Z,21.38
2022-11-14T00:52:13.646Z,24.33
2022-11-14T00:55:17.236Z,26.92
2022-11-14T00:58:21.257Z,27.83
2022-11-14T01:01:24.991Z,25.77
2022-11-14T01:04:28.670Z,25.65
2022-11-14T01:07:32.748Z,26.75
2022-11-14T01:10:48.272Z,31.50
2022-11-14T01:13:51.887Z,25.50
2022-11-14T01:16:55.865Z,26.80
2022-11-14T01:19:59.718Z,23.27
2022-11-14T01:23:03.446Z,27.23
2022-11-14T01:26:11.254Z,30.98
2022-11-14T01:29:14.819Z,31.48
2022-11-14T01:32:18.514Z,33.42
2022-11-14T01:35:22.468Z,34.55
2022-11-14T01:38:26.535Z,31.10
2022-11-14T01:41:30.301Z,34.45
2022-11-14T01:44:45.723Z,28.75
2022-11-14T01:47:49.795Z,29.85
2022-11-14T01:51:04.955Z,27.75
2022-11-14T01:54:30.479Z,30.48
2022-11-14T01:57:45.805Z,30.63
2022-11-14T02:00:49.780Z,32.50
2022-11-14T02:03:55.567Z,36.55
2022-11-14T02:07:02.622Z,42.50
2022-11-14T02:10:09.582Z,36.85
2022-11-14T02:13:13.961Z,33.63
2022-11-14T02:16:17.902Z,32.13
2022-11-14T02:19:21.862Z,30.52
2022-11-14T02:22:25.720Z,33.13
2022-11-14T02:25:29.375Z,37.83
2022-11-14T02:28:33.376Z,37.90
2022-11-14T02:31:37.510Z,30.90
2022-11-14T02:34:41.106Z,31.48
2022-11-14T02:37:45.012Z,34.00
2022-11-14T02:40:48.736Z,29.77
2022-11-14T02:43:52.675Z,27.13
2022-11-14T02:46:56.631Z,24.23
2022-11-14T02:50:00.236Z,24.13
2022-11-14T02:53:04.152Z,26.55
2022-11-14T02:56:07.946Z,26.92
2022-11-14T02:59:11.903Z,24.13
2022-11-14T03:02:15.894Z,24.30
2022-11-14T03:05:20.382Z,23.33
2022-11-14T03:08:24.258Z,23.33
2022-11-14T03:11:28.170Z,20.30
2022-11-14T03:14:32.287Z,18.88
2022-11-14T03:17:36.143Z,21.05
2022-11-14T03:20:40.302Z,27.55
2022-11-14T03:23:44.095Z,23.50
2022-11-14T03:26:48.119Z,23.42
2022-11-14T03:29:51.728Z,26.73
2022-11-14T03:32:56.012Z,28.67
2022-11-14T03:36:00.539Z,26.02
2022-11-14T03:39:05.123Z,22.65
2022-11-14T03:42:09.097Z,24.45
2022-11-14T03:45:12.676Z,30.10
2022-11-14T03:48:16.527Z,25.60
2022-11-14T03:51:20.476Z,24.08
2022-11-14T03:54:24.233Z,30.77
2022-11-14T03:57:28.095Z,23.63
2022-11-14T04:00:31.392Z,27.25
2022-11-14T04:03:35.198Z,21.98
2022-11-14T04:06:39.115Z,17.02
2022-11-14T04:09:44.370Z,16.65
2022-11-14T04:12:52.524Z,19.13
2022-11-14T04:15:57.757Z,19.42
2022-11-14T04:19:01.112Z,22.02
2022-11-14T04:22:05.697Z,23.45
2022-11-14T04:25:09.775Z,14.93
2022-11-14T04:28:13.720Z,19.92
2022-11-14T04:31:17.236Z,19.80
2022-11-14T04:34:20.812Z,17.80
2022-11-14T04:37:24.398Z,16.65
2022-11-14T04:40:28.122Z,16.63
2022-11-14T04:43:32.167Z,18.20
2022-11-14T04:46:35.721Z,16.27
2022-11-14T04:49:39.780Z,17.92
2022-11-14T04:52:43.748Z,18.50
2022-11-14T04:55:47.600Z,20.40
2022-11-14T04:58:51.507Z,20.95
2022-11-14T05:01:55.425Z,16.08
2022-11-14T05:04:59.375Z,20.52
2022-11-14T05:08:03.460Z,16.15
2022-11-14T05:11:16.286Z,16.02
2022-11-14T05:14:20.138Z,16.48
2022-11-14T05:17:24.288Z,14.18
2022-11-14T05:20:28.004Z,14.93
2022-11-14T05:23:32.419Z,14.02
2022-11-14T05:26:36.515Z,15.93
2022-11-14T05:29:40.185Z,14.93
2022-11-14T05:32:44.297Z,16.70
2022-11-14T05:35:47.864Z,17.23
2022-11-14T05:41:55.538Z,15.20
2022-11-14T05:44:59.259Z,18.73
2022-11-14T05:48:03.291Z,15.30
2022-11-14T05:51:09.504Z,15.52
2022-11-14T05:54:13.035Z,14.45
2022-11-14T05:57:17.197Z,14.45
2022-11-14T06:00:20.616Z,15.65
2022-11-14T06:03:24.533Z,13.32
2022-11-14T06:06:28.303Z,14.52
2022-11-14T06:09:32.285Z,15.32
2022-11-14T06:12:36.181Z,14.07
2022-11-14T06:15:40.006Z,14.05
2022-11-14T06:18:44.415Z,13.63
2022-11-14T06:21:48.193Z,17.48
2022-11-14T06:24:51.914Z,12.93
2022-11-14T06:27:55.727Z,14.10
2022-11-14T06:31:04.527Z,14.85
2022-11-14T06:34:08.258Z,15.10
2022-11-14T06:37:12.388Z,13.77
2022-11-14T06:40:17.018Z,14.60
2022-11-14T06:43:20.854Z,15.07
2022-11-14T06:46:24.761Z,13.40
2022-11-14T06:49:28.786Z,12.85
2022-11-14T06:52:32.867Z,14.55
2022-11-14T06:55:37.871Z,14.13
2022-11-14T06:58:46.291Z,15.30
2022-11-14T07:01:51.042Z,11.07
2022-11-14T07:04:54.536Z,13.73
2022-11-14T07:07:59.204Z,12.65
2022-11-14T07:11:10.005Z,12.98
2022-11-14T07:14:14.957Z,12.10
2022-11-14T07:17:21.036Z,11.35
2022-11-14T07:20:25.261Z,15.20
2022-11-14T07:23:31.164Z,14.50
2022-11-14T07:26:34.747Z,16.90
2022-11-14T07:29:38.643Z,12.55
2022-11-14T07:32:43.038Z,13.25
2022-11-14T07:35:46.771Z,15.82
2022-11-14T07:38:53.780Z,13.15
2022-11-14T07:41:58.347Z,14.15
2022-11-14T07:45:02.179Z,17.63
2022-11-14T07:48:06.099Z,16.23
2022-11-14T07:51:15.630Z,21.25
2022-11-14T07:54:19.288Z,20.55
2022-11-14T07:57:23.436Z,19.10
2022-11-14T08:00:27.520Z,18.83
2022-11-14T08:03:34.327Z,16.15
2022-11-14T08:06:48.112Z,14.40
2022-11-14T08:09:52.386Z,14.98
2022-11-14T08:13:33.088Z,17.40
2022-11-14T08:16:38.975Z,20.65
2022-11-14T08:19:50.569Z,17.65
2022-11-14T08:23:07.237Z,17.35
2022-11-14T08:27:05.815Z,19.27
2022-11-14T08:30:20.100Z,15.63
2022-11-14T08:33:35.309Z,20.63
2022-11-14T08:36:41.361Z,18.15
2022-11-14T08:39:50.763Z,18.45
2022-11-14T08:43:02.806Z,16.33
2022-11-14T08:46:25.309Z,19.38
2022-11-14T08:49:30.383Z,17.52
2022-11-14T08:52:34.557Z,19.20
2022-11-14T08:55:44.201Z,15.38
2022-11-14T08:59:14.266Z,14.48
2022-11-14T09:02:18.329Z,15.65
2022-11-14T09:05:26.419Z,14.77
2022-11-14T09:08:32.328Z,12.63
2022-11-14T09:11:41.538Z,16.50
2022-11-14T09:14:45.676Z,11.65
2022-11-14T09:17:53.952Z,13.07
2022-11-14T09:21:08.260Z,13.63
2022-11-14T09:24:16.312Z,11.80
2022-11-14T09:27:20.426Z,13.13
2022-11-14T09:30:34.386Z,15.88
2022-11-14T09:33:40.276Z,13.73
2022-11-14T09:36:46.167Z,15.25
2022-11-14T09:40:01.956Z,13.80
2022-11-14T09:43:26.161Z,13.52
2022-11-14T09:46:47.128Z,15.00
2022-11-14T09:50:06.496Z,13.23
2022-11-14T09:53:22.774Z,13.10
2022-11-14T09:56:28.215Z,13.02
2022-11-14T09:59:32.233Z,10.45
2022-11-14T10:02:51.128Z,10.40
2022-11-14T10:06:18.321Z,12.60
2022-11-14T10:12:37.485Z,9.95
2022-11-14T10:15:52.724Z,9.63
2022-11-14T10:18:59.649Z,7.55
2022-11-14T10:22:31.048Z,9.00
2022-11-14T10:25:53.955Z,8.32
2022-11-14T10:29:28.480Z,9.13
2022-11-14T10:32:47.394Z,9.52
2022-11-14T10:36:12.023Z,9.68
2022-11-14T10:39:22.810Z,12.13
2022-11-14T10:42:36.108Z,10.07
2022-11-14T10:45:56.483Z,8.30
2022-11-14T10:49:22.039Z,7.10
2022-11-14T10:52:42.856Z,6.10
2022-11-14T10:56:03.806Z,5.95
2022-11-14T10:59:13.571Z,7.15
2022-11-14T11:02:17.533Z,7.35
2022-11-14T11:06:13.920Z,6.63
2022-11-14T11:09:59.105Z,6.95
2022-11-14T11:13:04.095Z,6.70
2022-11-14T11:16:11.475Z,5.47
2022-11-14T11:19:24.766Z,6.45
2022-11-14T11:22:37.319Z,7.90
2022-11-14T11:25:41.236Z,6.25
2022-11-14T11:29:06.157Z,6.80
2022-11-14T11:32:10.057Z,6.03
2022-11-14T11:35:16.951Z,7.32
2022-11-14T11:38:28.247Z,5.57
2022-11-14T11:42:08.852Z,7.28
2022-11-14T11:45:05.232Z,7.13
2022-11-14T11:48:20.545Z,5.00
2022-11-14T11:51:26.479Z,7.05
2022-11-14T11:54:42.696Z,5.40
2022-11-14T12:00:58.294Z,6.93
2022-11-14T12:04:03.536Z,5.18
2022-11-14T12:07:18.126Z,5.28
2022-11-14T12:10:48.641Z,7.32
2022-11-14T12:14:27.644Z,6.40
2022-11-14T12:17:59.201Z,6.25
2022-11-14T12:21:43.622Z,7.43
2022-11-14T12:25:09.842Z,5.13
2022-11-14T12:28:50.028Z,5.93
2022-11-14T12:32:02.809Z,4.82
2022-11-14T12:35:14.399Z,5.68
2022-11-14T12:38:20.613Z,6.65
2022-11-14T12:41:33.983Z,7.18
2022-11-14T12:44:39.475Z,6.13
2022-11-14T12:48:23.090Z,4.35
2022-11-14T12:51:53.466Z,6.38
2022-11-14T12:54:57.268Z,6.35
2022-11-14T12:58:11.242Z,5.45
2022-11-14T13:01:41.169Z,7.45
2022-11-14T13:05:21.306Z,10.05
2022-11-14T13:08:52.431Z,10.55
2022-11-14T13:16:14.876Z,8.57
2022-11-14T13:19:40.080Z,9.30
2022-11-14T13:22:45.954Z,8.43
2022-11-14T13:26:09.821Z,12.30
2022-11-14T13:29:39.592Z,10.85
2022-11-14T13:32:44.110Z,10.95
2022-11-14T13:35:59.532Z,10.73
2022-11-14T13:39:31.254Z,11.88
2022-11-14T13:42:48.341Z,10.65
2022-11-14T13:45:58.152Z,12.05
2022-11-14T13:52:18.449Z,10.57
2022-11-14T13:55:42.046Z,9.88
2022-11-14T13:58:57.967Z,12.75
2022-11-14T14:05:16.963Z,14.15
2022-11-14T14:08:59.244Z,19.05
2022-11-14T14:12:21.317Z,26.65
2022-11-14T14:15:37.404Z,21.33
2022-11-14T14:22:27.645Z,22.38
2022-11-14T14:25:46.137Z,18.27
2022-11-14T14:29:15.908Z,17.17
2022-11-14T14:32:20.106Z,18.50
2022-11-14T14:35:37.134Z,19.65
2022-11-14T14:38:43.678Z,18.70
2022-11-14T14:41:49.337Z,24.20
2022-11-14T14:44:55.483Z,22.77
2022-11-14T14:48:01.024Z,25.90
2022-11-14T14:51:07.427Z,26.20
2022-11-14T14:54:19.974Z,23.63
2022-11-14T14:57:24.525Z,23.88
2022-11-14T15:00:29.166Z,18.85
2022-11-14T15:03:38.303Z,24.00
2022-11-14T15:06:47.929Z,26.67
2022-11-14T15:09:57.348Z,28.38
2022-11-14T15:13:01.526Z,28.70
2022-11-14T15:16:07.092Z,26.23
2022-11-14T15:19:16.304Z,49.92
2022-11-14T15:22:22.564Z,49.10
2022-11-14T15:25:26.545Z,48.63
2022-11-14T15:28:31.391Z,56.08
2022-11-14T15:31:36.381Z,64.05
2022-11-14T15:34:40.382Z,52.97
2022-11-14T15:38:36.950Z,48.47
2022-11-14T15:41:32.346Z,56.33
2022-11-14T15:44:35.885Z,51.55
2022-11-14T15:47:39.982Z,47.47
2022-11-14T15:50:49.233Z,35.92
2022-11-14T15:53:53.960Z,31.67
2022-11-14T15:57:05.771Z,36.05
2022-11-14T16:00:16.942Z,65.70
2022-11-14T16:03:22.367Z,98.07
2022-11-14T16:06:26.129Z,112.47
2022-11-14T16:09:30.030Z,102.20
2022-11-14T16:12:33.678Z,84.45
2022-11-14T16:15:38.107Z,68.85
2022-11-14T16:18:41.527Z,63.20
2022-11-14T16:21:45.532Z,52.92
2022-11-14T16:24:49.427Z,42.88
2022-11-14T16:27:53.674Z,36.05
2022-11-14T16:30:57.105Z,31.55
2022-11-14T16:34:01.096Z,32.92
2022-11-14T16:37:04.833Z,41.88
2022-11-14T16:43:17.313Z,52.13
2022-11-14T16:46:21.601Z,55.25
2022-11-14T16:49:25.804Z,51.17
2022-11-14T16:52:29.420Z,52.83
2022-11-14T16:55:33.395Z,46.15
2022-11-14T16:58:39.311Z,48.63
2022-11-14T17:01:43.641Z,49.97
2022-11-14T17:04:47.684Z,77.82
2022-11-14T17:07:51.410Z,57.95
2022-11-14T17:10:56.975Z,50.45
2022-11-14T17:14:00.851Z,57.42
2022-11-14T17:17:04.448Z,56.75
2022-11-14T17:20:10.203Z,52.75
2022-11-14T17:23:13.995Z,60.30
2022-11-14T17:26:17.802Z,63.83
2022-11-14T17:29:21.698Z,62.20
2022-11-14T17:32:25.353Z,50.95
2022-11-14T17:35:28.780Z,47.38
2022-11-14T17:38:34.591Z,58.25
2022-11-14T17:41:38.439Z,66.78
2022-11-14T17:44:42.313Z,59.85
2022-11-14T17:47:46.245Z,53.25
2022-11-14T17:50:50.780Z,54.85
2022-11-14T17:53:54.877Z,48.30
2022-11-14T17:56:59.378Z,45.63
2022-11-14T18:00:04.415Z,54.22
2022-11-14T18:03:08.010Z,52.40
2022-11-14T18:06:18.710Z,51.63
2022-11-14T18:09:22.596Z,46.20
2022-11-14T18:12:26.617Z,49.13
2022-11-14T18:15:34.285Z,47.85
2022-11-14T18:18:38.052Z,39.67
2022-11-14T18:24:46.776Z,36.45
2022-11-14T18:27:50.612Z,40.22
2022-11-14T18:30:55.972Z,47.00
2022-11-14T18:34:02.036Z,44.25
2022-11-14T18:37:06.319Z,48.45
2022-11-14T18:43:20.642Z,42.47
2022-11-14T18:46:25.222Z,38.20
2022-11-14T18:49:28.974Z,43.72
2022-11-14T18:52:33.107Z,40.50
2022-11-14T18:55:40.776Z,40.65
2022-11-14T18:58:44.846Z,43.97
2022-11-14T19:01:48.597Z,42.35
2022-11-14T19:04:52.741Z,47.78
2022-11-14T19:07:56.274Z,57.75
2022-11-14T19:11:04.894Z,54.60
2022-11-14T19:14:08.447Z,46.17
2022-11-14T19:17:13.581Z,43.05
2022-11-14T19:20:17.255Z,45.25
2022-11-14T19:23:21.234Z,44.80
2022-11-14T19:26:26.207Z,39.65
2022-11-14T19:29:30.125Z,36.58
2022-11-14T19:35:38.839Z,38.85
2022-11-14T19:38:42.715Z,37.75
2022-11-14T19:41:46.735Z,39.47
2022-11-14T19:44:50.522Z,41.42
2022-11-14T19:51:05.805Z,42.40
2022-11-14T19:54:10.647Z,44.97
2022-11-14T19:57:13.993Z,41.55
2022-11-14T20:00:18.076Z,44.58
2022-11-14T20:03:22.036Z,45.22
2022-11-14T20:06:35.700Z,43.13
2022-11-14T20:09:39.586Z,43.97
2022-11-14T20:12:43.503Z,43.40
2022-11-14T20:15:47.247Z,41.30
2022-11-14T20:18:58.883Z,51.30
2022-11-14T20:22:05.794Z,43.20
2022-11-14T20:25:09.388Z,53.85
2022-11-14T20:28:14.034Z,52.28
2022-11-14T20:31:21.147Z,55.78
2022-11-14T20:34:24.691Z,58.38
2022-11-14T20:37:28.649Z,55.85
2022-11-14T20:40:33.407Z,52.88
2022-11-14T20:43:36.882Z,59.42
2022-11-14T20:46:40.719Z,50.65
2022-11-14T20:49:46.312Z,55.63
2022-11-14T20:52:50.446Z,56.33
2022-11-14T20:55:54.290Z,49.72
2022-11-14T20:58:58.500Z,52.78
2022-11-14T21:02:02.341Z,60.50
2022-11-14T21:05:06.871Z,49.45
2022-11-14T21:08:11.574Z,54.40
2022-11-14T21:11:17.695Z,61.95
2022-11-14T21:14:21.305Z,61.83
2022-11-14T21:17:25.376Z,60.83
2022-11-14T21:20:28.834Z,57.10
2022-11-14T21:23:33.692Z,53.67
2022-11-14T21:26:38.716Z,50.50
2022-11-14T21:29:42.429Z,52.97
2022-11-14T21:32:46.287Z,50.08
2022-11-14T21:35:49.833Z,52.80
2022-11-14T21:38:54.248Z,52.47
2022-11-14T21:41:57.778Z,47.65
2022-11-14T21:45:01.077Z,48.33
2022-11-14T21:48:04.442Z,45.30
2022-11-14T21:51:19.307Z,43.60
2022-11-14T21:54:23.012Z,49.20
2022-11-14T21:57:26.992Z,48.55
2022-11-14T22:00:31.070Z,48.70
2022-11-14T22:03:54.379Z,49.08
2022-11-14T22:06:59.652Z,49.15
2022-11-14T22:10:03.346Z,52.00
2022-11-14T22:13:07.005Z,48.13
2022-11-14T22:16:11.240Z,49.55
2022-11-14T22:19:14.996Z,50.60
2022-11-14T22:25:22.121Z,43.35
2022-11-14T22:28:27.447Z,48.17
2022-11-14T22:31:31.426Z,50.17
2022-11-14T22:34:35.235Z,50.53
2022-11-14T22:37:39.104Z,46.63
2022-11-14T22:40:42.504Z,50.25
2022-11-14T22:43:46.636Z,58.17
2022-11-14T22:46:50.483Z,47.95
2022-11-14T22:52:57.398Z,42.25
2022-11-14T22:56:02.430Z,45.17
2022-11-14T22:59:06.207Z,46.80
2022-11-14T23:02:09.892Z,46.85
2022-11-14T23:05:13.213Z,50.75
2022-11-14T23:08:19.746Z,46.42
2022-11-14T23:11:29.399Z,52.47
2022-11-14T23:14:33.329Z,51.85
2022-11-14T23:17:37.433Z,52.33
2022-11-14T23:20:40.580Z,53.95
2022-11-14T23:23:44.406Z,45.22
2022-11-14T23:26:48.251Z,48.28
2022-11-14T23:29:52.173Z,54.22
2022-11-14T23:32:55.931Z,55.67
2022-11-14T23:35:59.505Z,51.67
2022-11-14T23:39:03.028Z,49.47
2022-11-14T23:42:06.997Z,50.63
2022-11-14T23:45:10.883Z,53.47
2022-11-14T23:48:16.159Z,55.35
2022-11-14T23:51:19.683Z,53.00
2022-11-14T23:54:23.774Z,50.53
2022-11-14T23:57:27.867Z,48.25
